sensor_id;sensor_type;location;lat;lon;timestamp;temperature;humidity
27544;DHT22;17996;51.056;3.656;2023-08-20T00:01:38;21.90;99.90
27544;DHT22;17996;51.056;3.656;2023-08-20T00:04:04;21.90;99.90
27544;DHT22;17996;51.056;3.656;2023-08-20T00:06:30;21.90;99.90
27544;DHT22;17996;51.056;3.656;2023-08-20T00:08:56;21.90;99.90
27544;DHT22;17996;51.056;3.656;2023-08-20T00:11:22;21.90;99.90
27544;DHT22;17996;51.056;3.656;2023-08-20T00:13:47;21.90;99.90
27544;DHT22;17996;51.056;3.656;2023-08-20T00:16:13;21.90;99.90
27544;DHT22;17996;51.056;3.656;2023-08-20T00:18:40;22.00;99.90
27544;DHT22;17996;51.056;3.656;2023-08-20T00:21:08;22.00;99.90
27544;DHT22;17996;51.056;3.656;2023-08-20T00:23:35;22.00;99.90
27544;DHT22;17996;51.056;3.656;2023-08-20T00:26:01;22.00;99.90
27544;DHT22;17996;51.056;3.656;2023-08-20T00:28:27;22.00;99.90
27544;DHT22;17996;51.056;3.656;2023-08-20T00:30:53;22.00;99.90
27544;DHT22;17996;51.056;3.656;2023-08-20T00:33:19;22.00;99.90
27544;DHT22;17996;51.056;3.656;2023-08-20T00:35:44;22.00;99.90
27544;DHT22;17996;51.056;3.656;2023-08-20T00:38:10;22.00;99.90
27544;DHT22;17996;51.056;3.656;2023-08-20T00:40:36;22.00;99.90
27544;DHT22;17996;51.056;3.656;2023-08-20T00:43:01;21.90;99.90
27544;DHT22;17996;51.056;3.656;2023-08-20T00:45:27;21.90;99.90
27544;DHT22;17996;51.056;3.656;2023-08-20T00:47:53;21.90;99.90
27544;DHT22;17996;51.056;3.656;2023-08-20T00:50:19;21.90;99.90
27544;DHT22;17996;51.056;3.656;2023-08-20T00:52:45;21.90;99.90
27544;DHT22;17996;51.056;3.656;2023-08-20T00:55:12;21.90;99.90
27544;DHT22;17996;51.056;3.656;2023-08-20T00:57:39;21.80;99.90
27544;DHT22;17996;51.056;3.656;2023-08-20T01:00:05;21.80;99.90
27544;DHT22;17996;51.056;3.656;2023-08-20T01:02:37;21.80;99.90
27544;DHT22;17996;51.056;3.656;2023-08-20T01:05:04;21.80;99.90
27544;DHT22;17996;51.056;3.656;2023-08-20T01:13:00;21.80;99.90
27544;DHT22;17996;51.056;3.656;2023-08-20T01:15:26;21.70;99.90
27544;DHT22;17996;51.056;3.656;2023-08-20T01:17:51;21.70;99.90
27544;DHT22;17996;51.056;3.656;2023-08-20T01:20:17;21.70;99.90
27544;DHT22;17996;51.056;3.656;2023-08-20T01:28:03;21.60;99.90
27544;DHT22;17996;51.056;3.656;2023-08-20T01:30:32;21.60;99.90
27544;DHT22;17996;51.056;3.656;2023-08-20T01:32:59;21.60;99.90
27544;DHT22;17996;51.056;3.656;2023-08-20T01:35:25;21.50;99.90
27544;DHT22;17996;51.056;3.656;2023-08-20T01:37:54;21.50;99.90
27544;DHT22;17996;51.056;3.656;2023-08-20T01:40:19;21.40;99.90
27544;DHT22;17996;51.056;3.656;2023-08-20T01:42:45;21.40;99.90
27544;DHT22;17996;51.056;3.656;2023-08-20T01:45:11;21.30;99.90
27544;DHT22;17996;51.056;3.656;2023-08-20T01:47:36;21.30;99.90
27544;DHT22;17996;51.056;3.656;2023-08-20T01:50:02;21.20;99.90
27544;DHT22;17996;51.056;3.656;2023-08-20T01:52:28;21.20;99.90
27544;DHT22;17996;51.056;3.656;2023-08-20T01:54:55;21.20;99.90
27544;DHT22;17996;51.056;3.656;2023-08-20T01:57:20;21.10;99.90
27544;DHT22;17996;51.056;3.656;2023-08-20T01:59:47;21.10;99.90
27544;DHT22;17996;51.056;3.656;2023-08-20T02:02:13;21.10;99.90
27544;DHT22;17996;51.056;3.656;2023-08-20T02:04:39;21.10;99.90
27544;DHT22;17996;51.056;3.656;2023-08-20T02:07:05;21.10;99.90
27544;DHT22;17996;51.056;3.656;2023-08-20T02:09:31;21.10;99.90
27544;DHT22;17996;51.056;3.656;2023-08-20T02:11:56;21.10;99.90
27544;DHT22;17996;51.056;3.656;2023-08-20T02:14:22;21.10;99.90
27544;DHT22;17996;51.056;3.656;2023-08-20T02:16:48;21.10;99.90
27544;DHT22;17996;51.056;3.656;2023-08-20T02:19:13;21.00;99.90
27544;DHT22;17996;51.056;3.656;2023-08-20T02:21:40;21.00;99.90
27544;DHT22;17996;51.056;3.656;2023-08-20T02:24:06;21.00;99.90
27544;DHT22;17996;51.056;3.656;2023-08-20T02:26:32;20.90;99.90
27544;DHT22;17996;51.056;3.656;2023-08-20T02:28:58;20.90;99.90
27544;DHT22;17996;51.056;3.656;2023-08-20T02:31:23;20.90;99.90
27544;DHT22;17996;51.056;3.656;2023-08-20T02:33:49;20.90;99.90
27544;DHT22;17996;51.056;3.656;2023-08-20T02:36:15;20.90;99.90
27544;DHT22;17996;51.056;3.656;2023-08-20T02:38:41;20.80;99.90
27544;DHT22;17996;51.056;3.656;2023-08-20T02:41:06;20.80;99.90
27544;DHT22;17996;51.056;3.656;2023-08-20T02:43:32;20.80;99.90
27544;DHT22;17996;51.056;3.656;2023-08-20T02:45:58;20.80;99.90
27544;DHT22;17996;51.056;3.656;2023-08-20T02:48:23;20.80;99.90
27544;DHT22;17996;51.056;3.656;2023-08-20T02:50:53;20.80;99.90
27544;DHT22;17996;51.056;3.656;2023-08-20T02:53:22;20.80;99.90
27544;DHT22;17996;51.056;3.656;2023-08-20T02:55:48;20.80;99.90
27544;DHT22;17996;51.056;3.656;2023-08-20T02:58:14;20.80;99.90
27544;DHT22;17996;51.056;3.656;2023-08-20T03:00:40;20.80;99.90
27544;DHT22;17996;51.056;3.656;2023-08-20T03:03:06;20.80;99.90
27544;DHT22;17996;51.056;3.656;2023-08-20T03:05:34;20.90;99.90
27544;DHT22;17996;51.056;3.656;2023-08-20T03:08:00;20.90;99.90
27544;DHT22;17996;51.056;3.656;2023-08-20T03:10:30;20.90;99.90
27544;DHT22;17996;51.056;3.656;2023-08-20T03:12:56;20.90;99.90
27544;DHT22;17996;51.056;3.656;2023-08-20T03:15:22;20.90;99.90
27544;DHT22;17996;51.056;3.656;2023-08-20T03:17:48;20.90;99.90
27544;DHT22;17996;51.056;3.656;2023-08-20T03:20:13;20.90;99.90
27544;DHT22;17996;51.056;3.656;2023-08-20T03:22:39;20.90;99.90
27544;DHT22;17996;51.056;3.656;2023-08-20T03:25:06;20.80;99.90
27544;DHT22;17996;51.056;3.656;2023-08-20T03:27:31;20.80;99.90
27544;DHT22;17996;51.056;3.656;2023-08-20T03:29:57;20.80;99.90
27544;DHT22;17996;51.056;3.656;2023-08-20T03:32:23;20.80;99.90
27544;DHT22;17996;51.056;3.656;2023-08-20T03:34:49;20.80;99.90
27544;DHT22;17996;51.056;3.656;2023-08-20T03:37:16;20.70;99.90
27544;DHT22;17996;51.056;3.656;2023-08-20T03:39:41;20.70;99.90
27544;DHT22;17996;51.056;3.656;2023-08-20T03:42:07;20.70;99.90
27544;DHT22;17996;51.056;3.656;2023-08-20T03:44:33;20.70;99.90
27544;DHT22;17996;51.056;3.656;2023-08-20T03:46:58;20.60;99.90
27544;DHT22;17996;51.056;3.656;2023-08-20T03:49:24;20.60;99.90
27544;DHT22;17996;51.056;3.656;2023-08-20T03:51:50;20.50;99.90
27544;DHT22;17996;51.056;3.656;2023-08-20T03:54:15;20.50;99.90
27544;DHT22;17996;51.056;3.656;2023-08-20T03:56:41;20.50;99.90
27544;DHT22;17996;51.056;3.656;2023-08-20T03:59:07;20.40;99.90
27544;DHT22;17996;51.056;3.656;2023-08-20T04:01:34;20.40;99.90
27544;DHT22;17996;51.056;3.656;2023-08-20T04:04:01;20.30;99.90
27544;DHT22;17996;51.056;3.656;2023-08-20T04:06:27;20.30;99.90
27544;DHT22;17996;51.056;3.656;2023-08-20T04:08:52;20.30;99.90
27544;DHT22;17996;51.056;3.656;2023-08-20T04:11:18;20.30;99.90
27544;DHT22;17996;51.056;3.656;2023-08-20T04:13:43;20.20;99.90
27544;DHT22;17996;51.056;3.656;2023-08-20T04:16:10;20.20;99.90
27544;DHT22;17996;51.056;3.656;2023-08-20T04:18:36;20.20;99.90
27544;DHT22;17996;51.056;3.656;2023-08-20T04:21:02;20.10;99.90
27544;DHT22;17996;51.056;3.656;2023-08-20T04:23:27;20.10;99.90
27544;DHT22;17996;51.056;3.656;2023-08-20T04:25:53;20.10;99.90
27544;DHT22;17996;51.056;3.656;2023-08-20T04:28:19;20.10;99.90
27544;DHT22;17996;51.056;3.656;2023-08-20T04:30:44;20.00;99.90
27544;DHT22;17996;51.056;3.656;2023-08-20T04:33:10;20.00;99.90
27544;DHT22;17996;51.056;3.656;2023-08-20T04:35:36;19.90;99.90
27544;DHT22;17996;51.056;3.656;2023-08-20T04:38:02;19.90;99.90
27544;DHT22;17996;51.056;3.656;2023-08-20T04:40:28;19.90;99.90
27544;DHT22;17996;51.056;3.656;2023-08-20T04:42:53;19.90;99.90
27544;DHT22;17996;51.056;3.656;2023-08-20T04:45:19;19.80;99.90
27544;DHT22;17996;51.056;3.656;2023-08-20T04:47:48;19.80;99.90
27544;DHT22;17996;51.056;3.656;2023-08-20T04:50:14;19.80;99.90
27544;DHT22;17996;51.056;3.656;2023-08-20T04:52:40;19.80;99.90
27544;DHT22;17996;51.056;3.656;2023-08-20T04:55:06;19.80;99.90
27544;DHT22;17996;51.056;3.656;2023-08-20T04:57:33;19.70;99.90
27544;DHT22;17996;51.056;3.656;2023-08-20T04:59:59;19.80;99.90
27544;DHT22;17996;51.056;3.656;2023-08-20T05:02:25;19.80;99.90
27544;DHT22;17996;51.056;3.656;2023-08-20T05:04:51;19.70;99.90
27544;DHT22;17996;51.056;3.656;2023-08-20T05:07:17;19.70;99.90
27544;DHT22;17996;51.056;3.656;2023-08-20T05:09:43;19.70;99.90
27544;DHT22;17996;51.056;3.656;2023-08-20T05:12:08;19.70;99.90
27544;DHT22;17996;51.056;3.656;2023-08-20T05:14:34;19.70;99.90
27544;DHT22;17996;51.056;3.656;2023-08-20T05:17:00;19.70;99.90
27544;DHT22;17996;51.056;3.656;2023-08-20T05:19:25;19.70;99.90
27544;DHT22;17996;51.056;3.656;2023-08-20T05:21:51;19.70;99.90
27544;DHT22;17996;51.056;3.656;2023-08-20T05:24:21;19.70;99.90
27544;DHT22;17996;51.056;3.656;2023-08-20T05:26:50;19.60;99.90
27544;DHT22;17996;51.056;3.656;2023-08-20T05:29:28;19.60;99.90
27544;DHT22;17996;51.056;3.656;2023-08-20T05:31:54;19.70;99.90
27544;DHT22;17996;51.056;3.656;2023-08-20T05:34:19;19.70;99.90
27544;DHT22;17996;51.056;3.656;2023-08-20T05:36:45;19.70;99.90
27544;DHT22;17996;51.056;3.656;2023-08-20T05:39:11;19.70;99.90
27544;DHT22;17996;51.056;3.656;2023-08-20T05:41:36;19.70;99.90
27544;DHT22;17996;51.056;3.656;2023-08-20T05:44:02;19.70;99.90
27544;DHT22;17996;51.056;3.656;2023-08-20T05:46:28;19.80;99.90
27544;DHT22;17996;51.056;3.656;2023-08-20T05:48:53;19.80;99.90
27544;DHT22;17996;51.056;3.656;2023-08-20T05:51:19;19.80;99.90
27544;DHT22;17996;51.056;3.656;2023-08-20T05:53:44;19.80;99.90
27544;DHT22;17996;51.056;3.656;2023-08-20T05:56:10;19.80;99.90
27544;DHT22;17996;51.056;3.656;2023-08-20T05:58:36;19.90;99.90
27544;DHT22;17996;51.056;3.656;2023-08-20T06:01:02;19.90;99.90
27544;DHT22;17996;51.056;3.656;2023-08-20T06:03:27;19.90;99.90
27544;DHT22;17996;51.056;3.656;2023-08-20T06:05:53;19.90;99.90
27544;DHT22;17996;51.056;3.656;2023-08-20T06:08:19;20.00;99.90
27544;DHT22;17996;51.056;3.656;2023-08-20T06:10:44;20.00;99.90
27544;DHT22;17996;51.056;3.656;2023-08-20T06:13:10;20.00;99.90
27544;DHT22;17996;51.056;3.656;2023-08-20T06:15:35;20.10;99.90
27544;DHT22;17996;51.056;3.656;2023-08-20T06:18:01;20.10;99.90
27544;DHT22;17996;51.056;3.656;2023-08-20T06:20:27;20.10;99.90
27544;DHT22;17996;51.056;3.656;2023-08-20T06:22:52;20.10;99.90
27544;DHT22;17996;51.056;3.656;2023-08-20T06:25:18;20.10;99.90
27544;DHT22;17996;51.056;3.656;2023-08-20T06:27:43;20.20;99.90
27544;DHT22;17996;51.056;3.656;2023-08-20T06:30:09;20.20;99.90
27544;DHT22;17996;51.056;3.656;2023-08-20T06:32:35;20.20;99.90
27544;DHT22;17996;51.056;3.656;2023-08-20T06:35:01;20.30;99.90
27544;DHT22;17996;51.056;3.656;2023-08-20T06:37:26;20.30;99.90
27544;DHT22;17996;51.056;3.656;2023-08-20T06:39:52;20.30;99.90
27544;DHT22;17996;51.056;3.656;2023-08-20T06:42:18;20.30;99.90
27544;DHT22;17996;51.056;3.656;2023-08-20T06:44:44;20.40;99.90
27544;DHT22;17996;51.056;3.656;2023-08-20T06:47:09;20.40;99.90
27544;DHT22;17996;51.056;3.656;2023-08-20T06:49:35;20.50;99.90
27544;DHT22;17996;51.056;3.656;2023-08-20T06:52:00;20.50;99.90
27544;DHT22;17996;51.056;3.656;2023-08-20T06:54:26;20.50;99.90
27544;DHT22;17996;51.056;3.656;2023-08-20T06:56:52;20.50;99.90
27544;DHT22;17996;51.056;3.656;2023-08-20T06:59:17;20.50;99.90
27544;DHT22;17996;51.056;3.656;2023-08-20T07:01:44;20.60;99.90
27544;DHT22;17996;51.056;3.656;2023-08-20T07:04:09;20.70;99.90
27544;DHT22;17996;51.056;3.656;2023-08-20T07:06:35;20.80;99.90
27544;DHT22;17996;51.056;3.656;2023-08-20T07:09:01;20.80;99.90
27544;DHT22;17996;51.056;3.656;2023-08-20T07:11:27;20.80;99.90
27544;DHT22;17996;51.056;3.656;2023-08-20T07:13:53;20.80;99.90
27544;DHT22;17996;51.056;3.656;2023-08-20T07:16:19;20.80;99.90
27544;DHT22;17996;51.056;3.656;2023-08-20T07:18:44;20.80;99.90
27544;DHT22;17996;51.056;3.656;2023-08-20T07:21:10;20.80;99.90
27544;DHT22;17996;51.056;3.656;2023-08-20T07:23:36;20.80;99.90
27544;DHT22;17996;51.056;3.656;2023-08-20T07:26:09;20.80;99.90
27544;DHT22;17996;51.056;3.656;2023-08-20T07:28:36;20.80;99.90
27544;DHT22;17996;51.056;3.656;2023-08-20T07:31:20;20.80;99.90
27544;DHT22;17996;51.056;3.656;2023-08-20T07:33:47;20.80;99.90
27544;DHT22;17996;51.056;3.656;2023-08-20T07:36:13;20.80;99.90
27544;DHT22;17996;51.056;3.656;2023-08-20T07:38:40;20.80;99.90
27544;DHT22;17996;51.056;3.656;2023-08-20T07:41:11;20.90;99.90
27544;DHT22;17996;51.056;3.656;2023-08-20T07:43:37;20.90;99.90
27544;DHT22;17996;51.056;3.656;2023-08-20T07:46:03;20.90;99.90
27544;DHT22;17996;51.056;3.656;2023-08-20T07:48:29;20.90;99.90
27544;DHT22;17996;51.056;3.656;2023-08-20T07:50:55;21.00;99.90
27544;DHT22;17996;51.056;3.656;2023-08-20T07:53:21;21.00;99.90
27544;DHT22;17996;51.056;3.656;2023-08-20T07:55:46;21.10;99.90
27544;DHT22;17996;51.056;3.656;2023-08-20T07:58:12;21.10;99.90
27544;DHT22;17996;51.056;3.656;2023-08-20T08:00:38;21.10;99.90
27544;DHT22;17996;51.056;3.656;2023-08-20T08:03:04;21.10;99.90
27544;DHT22;17996;51.056;3.656;2023-08-20T08:05:30;21.10;99.90
27544;DHT22;17996;51.056;3.656;2023-08-20T08:07:55;21.10;99.90
27544;DHT22;17996;51.056;3.656;2023-08-20T08:10:21;21.10;99.90
27544;DHT22;17996;51.056;3.656;2023-08-20T08:12:47;21.10;99.90
27544;DHT22;17996;51.056;3.656;2023-08-20T08:15:13;21.20;99.90
27544;DHT22;17996;51.056;3.656;2023-08-20T08:17:39;21.30;99.90
27544;DHT22;17996;51.056;3.656;2023-08-20T08:20:05;21.30;99.90
27544;DHT22;17996;51.056;3.656;2023-08-20T08:22:31;21.30;99.90
27544;DHT22;17996;51.056;3.656;2023-08-20T08:24:57;21.40;99.90
27544;DHT22;17996;51.056;3.656;2023-08-20T08:27:23;21.40;99.90
27544;DHT22;17996;51.056;3.656;2023-08-20T08:29:48;21.40;99.90
27544;DHT22;17996;51.056;3.656;2023-08-20T08:32:14;21.40;99.90
27544;DHT22;17996;51.056;3.656;2023-08-20T08:34:40;21.40;99.90
27544;DHT22;17996;51.056;3.656;2023-08-20T08:37:06;21.50;99.90
27544;DHT22;17996;51.056;3.656;2023-08-20T08:39:32;21.50;99.90
27544;DHT22;17996;51.056;3.656;2023-08-20T08:42:02;21.50;99.90
27544;DHT22;17996;51.056;3.656;2023-08-20T08:44:31;21.60;99.90
27544;DHT22;17996;51.056;3.656;2023-08-20T08:47:05;21.70;99.90
27544;DHT22;17996;51.056;3.656;2023-08-20T08:49:34;21.70;99.90
27544;DHT22;17996;51.056;3.656;2023-08-20T08:52:00;21.80;99.90
27544;DHT22;17996;51.056;3.656;2023-08-20T08:54:27;21.80;99.90
27544;DHT22;17996;51.056;3.656;2023-08-20T08:56:53;21.90;99.90
27544;DHT22;17996;51.056;3.656;2023-08-20T08:59:19;21.90;99.90
27544;DHT22;17996;51.056;3.656;2023-08-20T09:01:45;21.90;99.90
27544;DHT22;17996;51.056;3.656;2023-08-20T09:04:12;21.90;99.90
27544;DHT22;17996;51.056;3.656;2023-08-20T09:06:51;21.90;99.90
27544;DHT22;17996;51.056;3.656;2023-08-20T09:09:18;21.90;99.90
27544;DHT22;17996;51.056;3.656;2023-08-20T09:11:44;22.00;99.90
27544;DHT22;17996;51.056;3.656;2023-08-20T09:14:30;22.00;99.90
27544;DHT22;17996;51.056;3.656;2023-08-20T09:17:00;22.10;99.90
27544;DHT22;17996;51.056;3.656;2023-08-20T09:19:31;22.10;99.90
27544;DHT22;17996;51.056;3.656;2023-08-20T09:22:00;22.10;99.90
27544;DHT22;17996;51.056;3.656;2023-08-20T09:24:54;22.10;99.90
27544;DHT22;17996;51.056;3.656;2023-08-20T09:27:18;22.20;99.90
27544;DHT22;17996;51.056;3.656;2023-08-20T09:29:51;22.10;99.90
27544;DHT22;17996;51.056;3.656;2023-08-20T09:32:20;22.30;99.90
27544;DHT22;17996;51.056;3.656;2023-08-20T09:34:48;22.30;99.90
27544;DHT22;17996;51.056;3.656;2023-08-20T09:37:15;22.30;99.90
27544;DHT22;17996;51.056;3.656;2023-08-20T09:39:41;22.40;99.90
27544;DHT22;17996;51.056;3.656;2023-08-20T09:42:08;22.30;99.90
27544;DHT22;17996;51.056;3.656;2023-08-20T09:44:36;22.40;99.90
27544;DHT22;17996;51.056;3.656;2023-08-20T09:47:12;22.40;99.90
27544;DHT22;17996;51.056;3.656;2023-08-20T09:49:46;22.50;99.90
27544;DHT22;17996;51.056;3.656;2023-08-20T09:52:25;22.50;99.90
27544;DHT22;17996;51.056;3.656;2023-08-20T09:57:34;22.50;99.90
27544;DHT22;17996;51.056;3.656;2023-08-20T10:00:01;22.50;99.90
27544;DHT22;17996;51.056;3.656;2023-08-20T10:02:28;22.60;99.90
27544;DHT22;17996;51.056;3.656;2023-08-20T10:04:55;22.70;99.90
27544;DHT22;17996;51.056;3.656;2023-08-20T10:07:21;22.70;99.90
27544;DHT22;17996;51.056;3.656;2023-08-20T10:09:49;22.80;99.90
27544;DHT22;17996;51.056;3.656;2023-08-20T10:12:17;22.80;99.90
27544;DHT22;17996;51.056;3.656;2023-08-20T10:14:43;22.80;99.90
27544;DHT22;17996;51.056;3.656;2023-08-20T10:17:11;22.80;99.90
27544;DHT22;17996;51.056;3.656;2023-08-20T10:19:37;22.80;99.90
27544;DHT22;17996;51.056;3.656;2023-08-20T10:22:04;22.80;99.90
27544;DHT22;17996;51.056;3.656;2023-08-20T10:25:01;22.90;99.90
27544;DHT22;17996;51.056;3.656;2023-08-20T10:27:35;23.00;99.90
27544;DHT22;17996;51.056;3.656;2023-08-20T10:30:02;23.00;99.90
27544;DHT22;17996;51.056;3.656;2023-08-20T10:35:12;23.10;99.90
27544;DHT22;17996;51.056;3.656;2023-08-20T10:37:38;23.10;99.90
27544;DHT22;17996;51.056;3.656;2023-08-20T10:40:06;23.20;99.90
27544;DHT22;17996;51.056;3.656;2023-08-20T10:42:41;23.20;99.90
27544;DHT22;17996;51.056;3.656;2023-08-20T10:45:08;23.40;99.90
27544;DHT22;17996;51.056;3.656;2023-08-20T10:47:42;23.40;99.90
27544;DHT22;17996;51.056;3.656;2023-08-20T10:50:10;23.50;99.90
27544;DHT22;17996;51.056;3.656;2023-08-20T10:52:41;23.50;99.90
27544;DHT22;17996;51.056;3.656;2023-08-20T10:55:07;23.50;99.90
27544;DHT22;17996;51.056;3.656;2023-08-20T10:57:36;23.50;99.90
27544;DHT22;17996;51.056;3.656;2023-08-20T11:00:04;23.60;99.90
27544;DHT22;17996;51.056;3.656;2023-08-20T11:02:40;23.60;99.90
27544;DHT22;17996;51.056;3.656;2023-08-20T11:05:20;23.60;99.90
27544;DHT22;17996;51.056;3.656;2023-08-20T11:07:50;23.60;99.90
27544;DHT22;17996;51.056;3.656;2023-08-20T11:10:17;23.60;99.90
27544;DHT22;17996;51.056;3.656;2023-08-20T11:12:45;23.60;99.90
27544;DHT22;17996;51.056;3.656;2023-08-20T11:15:11;23.70;99.90
27544;DHT22;17996;51.056;3.656;2023-08-20T11:17:46;23.70;99.90
27544;DHT22;17996;51.056;3.656;2023-08-20T11:20:14;23.70;99.90
27544;DHT22;17996;51.056;3.656;2023-08-20T11:22:40;23.70;99.90
27544;DHT22;17996;51.056;3.656;2023-08-20T11:25:11;23.80;99.90
27544;DHT22;17996;51.056;3.656;2023-08-20T11:27:41;23.90;99.90
27544;DHT22;17996;51.056;3.656;2023-08-20T11:30:08;23.90;99.90
27544;DHT22;17996;51.056;3.656;2023-08-20T11:32:35;23.90;99.90
27544;DHT22;17996;51.056;3.656;2023-08-20T11:35:01;24.00;99.90
27544;DHT22;17996;51.056;3.656;2023-08-20T11:37:27;24.00;99.90
27544;DHT22;17996;51.056;3.656;2023-08-20T11:39:53;24.00;99.90
27544;DHT22;17996;51.056;3.656;2023-08-20T11:42:19;24.10;99.90
27544;DHT22;17996;51.056;3.656;2023-08-20T11:44:46;24.10;99.90
27544;DHT22;17996;51.056;3.656;2023-08-20T11:47:18;24.20;99.90
27544;DHT22;17996;51.056;3.656;2023-08-20T11:49:44;24.30;99.90
27544;DHT22;17996;51.056;3.656;2023-08-20T11:52:11;24.30;99.90
27544;DHT22;17996;51.056;3.656;2023-08-20T11:54:38;24.30;99.90
27544;DHT22;17996;51.056;3.656;2023-08-20T11:57:06;24.30;99.90
27544;DHT22;17996;51.056;3.656;2023-08-20T11:59:32;24.30;99.90
27544;DHT22;17996;51.056;3.656;2023-08-20T12:02:00;24.40;99.90
27544;DHT22;17996;51.056;3.656;2023-08-20T12:04:27;24.40;99.90
27544;DHT22;17996;51.056;3.656;2023-08-20T12:09:31;24.50;99.90
27544;DHT22;17996;51.056;3.656;2023-08-20T12:11:58;24.50;99.90
27544;DHT22;17996;51.056;3.656;2023-08-20T12:14:24;24.50;99.90
27544;DHT22;17996;51.056;3.656;2023-08-20T12:16:50;24.50;99.90
27544;DHT22;17996;51.056;3.656;2023-08-20T12:19:16;24.50;99.90
27544;DHT22;17996;51.056;3.656;2023-08-20T12:21:42;24.60;99.90
27544;DHT22;17996;51.056;3.656;2023-08-20T12:24:09;24.60;99.90
27544;DHT22;17996;51.056;3.656;2023-08-20T12:26:39;24.70;99.90
27544;DHT22;17996;51.056;3.656;2023-08-20T12:29:05;24.70;99.90
27544;DHT22;17996;51.056;3.656;2023-08-20T12:31:31;24.70;99.90
27544;DHT22;17996;51.056;3.656;2023-08-20T12:33:57;24.80;99.90
27544;DHT22;17996;51.056;3.656;2023-08-20T12:36:23;24.80;99.90
27544;DHT22;17996;51.056;3.656;2023-08-20T12:38:49;24.80;99.90
27544;DHT22;17996;51.056;3.656;2023-08-20T12:41:14;24.90;99.90
27544;DHT22;17996;51.056;3.656;2023-08-20T12:43:40;24.90;99.90
27544;DHT22;17996;51.056;3.656;2023-08-20T12:46:06;24.90;99.90
27544;DHT22;17996;51.056;3.656;2023-08-20T12:48:32;25.00;99.90
27544;DHT22;17996;51.056;3.656;2023-08-20T12:50:58;25.10;99.90
27544;DHT22;17996;51.056;3.656;2023-08-20T12:53:24;25.20;99.90
27544;DHT22;17996;51.056;3.656;2023-08-20T12:55:50;25.20;99.90
27544;DHT22;17996;51.056;3.656;2023-08-20T12:58:15;25.20;99.90
27544;DHT22;17996;51.056;3.656;2023-08-20T13:00:41;25.30;99.90
27544;DHT22;17996;51.056;3.656;2023-08-20T13:03:07;25.30;99.90
27544;DHT22;17996;51.056;3.656;2023-08-20T13:05:33;25.30;99.90
27544;DHT22;17996;51.056;3.656;2023-08-20T13:07:59;25.40;99.90
27544;DHT22;17996;51.056;3.656;2023-08-20T13:10:25;25.30;99.90
27544;DHT22;17996;51.056;3.656;2023-08-20T13:12:52;25.30;99.90
27544;DHT22;17996;51.056;3.656;2023-08-20T13:15:20;25.40;99.90
27544;DHT22;17996;51.056;3.656;2023-08-20T13:17:47;25.40;99.90
27544;DHT22;17996;51.056;3.656;2023-08-20T13:20:14;25.40;99.90
27544;DHT22;17996;51.056;3.656;2023-08-20T13:22:40;25.50;99.90
27544;DHT22;17996;51.056;3.656;2023-08-20T13:25:07;25.60;99.90
27544;DHT22;17996;51.056;3.656;2023-08-20T13:27:33;25.80;99.90
27544;DHT22;17996;51.056;3.656;2023-08-20T13:29:58;25.90;99.90
27544;DHT22;17996;51.056;3.656;2023-08-20T13:32:24;26.10;99.90
27544;DHT22;17996;51.056;3.656;2023-08-20T13:34:51;26.20;99.90
27544;DHT22;17996;51.056;3.656;2023-08-20T13:37:17;26.40;99.90
27544;DHT22;17996;51.056;3.656;2023-08-20T13:39:43;26.60;99.90
27544;DHT22;17996;51.056;3.656;2023-08-20T13:42:09;26.60;99.90
27544;DHT22;17996;51.056;3.656;2023-08-20T13:44:35;26.80;99.90
27544;DHT22;17996;51.056;3.656;2023-08-20T13:47:01;26.90;99.90
27544;DHT22;17996;51.056;3.656;2023-08-20T13:49:26;27.00;99.90
27544;DHT22;17996;51.056;3.656;2023-08-20T13:51:52;26.90;99.90
27544;DHT22;17996;51.056;3.656;2023-08-20T13:54:18;26.90;99.90
27544;DHT22;17996;51.056;3.656;2023-08-20T13:56:43;27.00;99.90
27544;DHT22;17996;51.056;3.656;2023-08-20T13:59:12;26.90;99.90
27544;DHT22;17996;51.056;3.656;2023-08-20T14:01:37;27.10;99.90
27544;DHT22;17996;51.056;3.656;2023-08-20T14:04:03;27.00;99.90
27544;DHT22;17996;51.056;3.656;2023-08-20T14:06:29;27.00;99.90
27544;DHT22;17996;51.056;3.656;2023-08-20T14:08:55;27.00;99.90
27544;DHT22;17996;51.056;3.656;2023-08-20T14:11:21;26.80;99.90
27544;DHT22;17996;51.056;3.656;2023-08-20T14:13:48;26.60;99.90
27544;DHT22;17996;51.056;3.656;2023-08-20T14:16:14;26.40;99.90
27544;DHT22;17996;51.056;3.656;2023-08-20T14:18:39;26.40;99.90
27544;DHT22;17996;51.056;3.656;2023-08-20T14:21:05;26.60;99.90
27544;DHT22;17996;51.056;3.656;2023-08-20T14:23:31;26.80;99.90
27544;DHT22;17996;51.056;3.656;2023-08-20T14:25:57;27.00;99.90
27544;DHT22;17996;51.056;3.656;2023-08-20T14:28:23;27.40;99.90
27544;DHT22;17996;51.056;3.656;2023-08-20T14:30:49;27.70;99.90
27544;DHT22;17996;51.056;3.656;2023-08-20T14:33:20;28.20;99.90
27544;DHT22;17996;51.056;3.656;2023-08-20T14:35:46;28.40;99.90
27544;DHT22;17996;51.056;3.656;2023-08-20T14:38:12;28.60;99.90
27544;DHT22;17996;51.056;3.656;2023-08-20T14:40:39;28.90;99.90
27544;DHT22;17996;51.056;3.656;2023-08-20T14:43:08;29.20;99.90
27544;DHT22;17996;51.056;3.656;2023-08-20T14:45:35;29.50;99.90
27544;DHT22;17996;51.056;3.656;2023-08-20T14:48:01;29.80;99.90
27544;DHT22;17996;51.056;3.656;2023-08-20T14:50:27;30.10;99.90
27544;DHT22;17996;51.056;3.656;2023-08-20T14:52:53;30.50;99.90
27544;DHT22;17996;51.056;3.656;2023-08-20T14:55:19;30.80;99.90
27544;DHT22;17996;51.056;3.656;2023-08-20T14:57:45;30.60;99.90
27544;DHT22;17996;51.056;3.656;2023-08-20T15:00:12;30.60;99.90
27544;DHT22;17996;51.056;3.656;2023-08-20T15:02:43;30.60;99.90
27544;DHT22;17996;51.056;3.656;2023-08-20T15:05:10;31.00;99.90
27544;DHT22;17996;51.056;3.656;2023-08-20T15:07:36;31.10;99.90
27544;DHT22;17996;51.056;3.656;2023-08-20T15:10:03;31.50;99.90
27544;DHT22;17996;51.056;3.656;2023-08-20T15:12:37;31.80;99.90
27544;DHT22;17996;51.056;3.656;2023-08-20T15:15:04;32.10;99.90
27544;DHT22;17996;51.056;3.656;2023-08-20T15:17:33;32.30;99.90
27544;DHT22;17996;51.056;3.656;2023-08-20T15:19:58;32.50;99.90
27544;DHT22;17996;51.056;3.656;2023-08-20T15:22:24;32.40;99.90
27544;DHT22;17996;51.056;3.656;2023-08-20T15:24:50;32.60;99.90
27544;DHT22;17996;51.056;3.656;2023-08-20T15:27:19;32.90;99.90
27544;DHT22;17996;51.056;3.656;2023-08-20T15:29:45;33.00;99.90
27544;DHT22;17996;51.056;3.656;2023-08-20T15:32:11;32.90;99.90
27544;DHT22;17996;51.056;3.656;2023-08-20T15:34:37;33.10;99.90
27544;DHT22;17996;51.056;3.656;2023-08-20T15:37:03;33.30;99.90
27544;DHT22;17996;51.056;3.656;2023-08-20T15:39:32;33.40;99.90
27544;DHT22;17996;51.056;3.656;2023-08-20T15:42:01;33.40;99.40
27544;DHT22;17996;51.056;3.656;2023-08-20T15:44:27;33.40;99.90
27544;DHT22;17996;51.056;3.656;2023-08-20T15:46:53;33.50;99.50